Time;durP1;ratioP1;P1;durP2;ratioP2;P2;SDS_P1;SDS_P2;PMS_P1;PMS_P2;Temp;Humidity;BMP_temperature;BMP_pressure;BME280_temperature;BME280_humidity;BME280_pressure;Samples;Min_cycle;Max_cycle;Signal;HPM_P1;HPM_P2
2022/12/06 00:00:12;;;;;;;;;;;3.80;99.90;;;;;;5053218;28;19936;-83
2022/12/06 00:02:40;;;;;;;;;;;3.80;99.90;;;;;;5040998;28;19933;-83
2022/12/06 00:05:08;;;;;;;;;;;3.80;99.90;;;;;;5047710;28;19928;-82
2022/12/06 00:07:35;;;;;;;;;;;3.90;99.90;;;;;;5036711;28;20098;-83
2022/12/06 00:10:02;;;;;;;;;;;3.90;99.90;;;;;;5053507;28;19929;-82
2022/12/06 00:12:29;;;;;;;;;;;3.90;99.90;;;;;;5049805;28;19925;-82
2022/12/06 00:14:56;;;;;;;;;;;3.90;99.90;;;;;;5046538;28;19944;-76
2022/12/06 00:17:23;;;;;;;;;;;3.90;99.90;;;;;;5034782;28;19925;-76
2022/12/06 00:19:51;;;;;;;;;;;3.90;99.90;;;;;;5047425;28;19928;-76
2022/12/06 00:22:18;;;;;;;;;;;3.90;99.90;;;;;;5049927;28;20390;-76
2022/12/06 00:24:45;;;;;;;;;;;4.00;99.90;;;;;;5027863;28;20461;-77
2022/12/06 00:27:12;;;;;;;;;;;4.00;99.90;;;;;;5033625;28;20253;-76
2022/12/06 00:29:39;;;;;;;;;;;4.00;99.90;;;;;;5048145;28;19933;-76
2022/12/06 00:32:06;;;;;;;;;;;4.00;99.90;;;;;;5044490;28;19933;-76
2022/12/06 00:34:33;;;;;;;;;;;4.00;99.90;;;;;;5043965;28;20476;-74
2022/12/06 00:37:02;;;;;;;;;;;4.00;99.90;;;;;;5030294;28;19928;-74
2022/12/06 00:39:29;;;;;;;;;;;4.00;99.90;;;;;;5046440;28;19935;-76
2022/12/06 00:41:56;;;;;;;;;;;4.00;99.90;;;;;;5040057;28;19953;-75
2022/12/06 00:44:23;;;;;;;;;;;4.00;99.90;;;;;;5029166;28;20012;-76
2022/12/06 00:46:50;;;;;;;;;;;4.00;99.90;;;;;;5047178;28;20019;-75
2022/12/06 00:49:17;;;;;;;;;;;4.00;99.90;;;;;;5029074;28;19951;-75
2022/12/06 00:51:44;;;;;;;;;;;4.00;99.90;;;;;;5037851;28;19967;-75
2022/12/06 00:54:13;;;;;;;;;;;4.00;99.90;;;;;;5037294;28;19943;-76
2022/12/06 00:56:41;;;;;;;;;;;4.00;99.90;;;;;;5031648;28;19928;-76
2022/12/06 00:59:08;;;;;;;;;;;4.00;99.90;;;;;;5047464;28;19933;-75
2022/12/06 01:01:35;;;;;;;;;;;4.00;99.90;;;;;;5046495;28;19964;-78
2022/12/06 01:04:04;;;;;;;;;;;4.00;99.90;;;;;;5054742;28;19929;-78
2022/12/06 01:06:32;;;;;;;;;;;4.00;99.90;;;;;;5050578;28;20422;-78
2022/12/06 01:09:01;;;;;;;;;;;4.00;99.90;;;;;;5022538;28;19925;-77
2022/12/06 01:11:31;;;;;;;;;;;4.80;99.90;;;;;;5039543;28;19960;-77
2022/12/06 01:13:57;;;;;;;;;;;4.00;99.90;;;;;;5050107;28;20019;-77
2022/12/06 01:16:27;;;;;;;;;;;3.90;99.90;;;;;;5050580;28;19983;-77
2022/12/06 01:18:54;;;;;;;;;;;3.90;99.90;;;;;;5033189;28;20292;-77
2022/12/06 01:21:22;;;;;;;;;;;3.90;99.90;;;;;;5051543;28;19925;-76
2022/12/06 01:23:49;;;;;;;;;;;3.80;99.90;;;;;;5033135;28;19932;-76
2022/12/06 01:26:18;;;;;;;;;;;3.80;99.90;;;;;;5049048;28;19928;-77
2022/12/06 01:28:46;;;;;;;;;;;3.80;99.90;;;;;;5049531;28;19940;-77
2022/12/06 01:31:14;;;;;;;;;;;3.80;99.90;;;;;;5029173;28;20014;-77
2022/12/06 01:33:41;;;;;;;;;;;3.80;99.90;;;;;;5049636;28;19929;-77
2022/12/06 01:36:08;;;;;;;;;;;3.80;99.90;;;;;;5048656;28;19933;-78
2022/12/06 01:38:35;;;;;;;;;;;3.80;99.90;;;;;;5047918;28;20011;-78
2022/12/06 01:41:02;;;;;;;;;;;3.80;99.90;;;;;;5031986;28;19933;-78
2022/12/06 01:43:30;;;;;;;;;;;5.00;99.90;;;;;;5043270;28;19983;-78
2022/12/06 01:46:00;;;;;;;;;;;3.70;99.90;;;;;;5032839;28;19929;-77
2022/12/06 01:48:31;;;;;;;;;;;3.70;99.90;;;;;;5050627;28;19924;-81
2022/12/06 01:50:59;;;;;;;;;;;3.70;99.90;;;;;;5033478;28;20357;-81
2022/12/06 01:53:26;;;;;;;;;;;3.80;99.90;;;;;;5050537;28;19929;-81
2022/12/06 01:55:53;;;;;;;;;;;3.80;99.90;;;;;;5035334;28;19929;-81
2022/12/06 01:58:23;;;;;;;;;;;3.80;99.90;;;;;;5045436;28;20281;-81
2022/12/06 02:00:50;;;;;;;;;;;3.80;99.90;;;;;;5030635;28;19999;-81
2022/12/06 02:03:20;;;;;;;;;;;3.80;99.90;;;;;;5050054;28;19955;-81
2022/12/06 02:05:48;;;;;;;;;;;3.80;99.90;;;;;;5028751;28;20027;-78
2022/12/06 02:08:16;;;;;;;;;;;3.80;99.90;;;;;;5043365;28;20150;-77
2022/12/06 02:10:43;;;;;;;;;;;3.80;99.90;;;;;;5048181;28;20292;-77
2022/12/06 02:13:10;;;;;;;;;;;3.90;99.90;;;;;;5049230;28;20425;-76
2022/12/06 02:15:39;;;;;;;;;;;3.90;99.90;;;;;;5052435;28;20271;-78
2022/12/06 02:18:10;;;;;;;;;;;4.00;99.90;;;;;;5053048;28;19940;-78
2022/12/06 02:20:43;;;;;;;;;;;4.00;99.90;;;;;;5053550;28;19943;-78
2022/12/06 02:23:23;;;;;;;;;;;4.00;99.90;;;;;;5045111;28;19929;-76
2022/12/06 02:26:04;;;;;;;;;;;4.00;99.90;;;;;;5033915;28;19925;-77
2022/12/06 02:28:43;;;;;;;;;;;4.00;99.90;;;;;;5051361;28;19928;-77
2022/12/06 02:31:15;;;;;;;;;;;4.10;99.90;;;;;;5033328;28;19929;-78
2022/12/06 02:33:46;;;;;;;;;;;4.10;99.90;;;;;;5034276;28;19925;-78
2022/12/06 02:36:15;;;;;;;;;;;4.00;99.90;;;;;;5050159;28;19925;-77
2022/12/06 02:38:44;;;;;;;;;;;4.00;99.90;;;;;;5033943;28;19929;-76
2022/12/06 02:41:16;;;;;;;;;;;4.00;99.90;;;;;;5048851;28;19931;-77
2022/12/06 02:43:46;;;;;;;;;;;4.00;99.90;;;;;;5047261;28;19951;-75
2022/12/06 02:46:23;;;;;;;;;;;3.80;99.90;;;;;;5056281;28;20442;-79
2022/12/06 02:48:53;;;;;;;;;;;3.90;99.90;;;;;;5033050;28;19990;-76
2022/12/06 02:51:21;;;;;;;;;;;3.90;99.90;;;;;;5045974;28;19928;-77
2022/12/06 02:53:50;;;;;;;;;;;3.90;99.90;;;;;;5039515;28;20399;-76
2022/12/06 02:56:18;;;;;;;;;;;3.90;99.90;;;;;;5048210;28;20327;-76
2022/12/06 02:58:45;;;;;;;;;;;4.00;99.90;;;;;;5045297;28;19936;-77
2022/12/06 03:01:16;;;;;;;;;;;4.00;99.90;;;;;;5046153;28;19933;-76
2022/12/06 03:04:00;;;;;;;;;;;4.00;99.90;;;;;;5042900;28;19929;-76
2022/12/06 03:06:56;;;;;;;;;;;4.00;99.90;;;;;;5046543;28;19936;-76
2022/12/06 03:09:27;;;;;;;;;;;4.00;99.90;;;;;;5030293;28;19940;-76
2022/12/06 03:11:57;;;;;;;;;;;4.00;99.90;;;;;;5029870;28;19975;-77
2022/12/06 03:14:25;;;;;;;;;;;4.00;99.90;;;;;;5046053;28;19951;-76
2022/12/06 03:16:58;;;;;;;;;;;4.00;99.90;;;;;;5026640;28;20391;-76
2022/12/06 03:19:25;;;;;;;;;;;4.10;99.90;;;;;;5026776;28;20028;-77
2022/12/06 03:21:57;;;;;;;;;;;4.10;99.90;;;;;;5046811;28;19929;-76
2022/12/06 03:24:25;;;;;;;;;;;4.00;99.90;;;;;;5029534;28;20025;-77
2022/12/06 03:26:52;;;;;;;;;;;4.00;99.90;;;;;;5029327;28;20601;-76
2022/12/06 03:29:22;;;;;;;;;;;4.00;99.90;;;;;;5029368;28;19924;-77
2022/12/06 03:31:49;;;;;;;;;;;4.00;99.90;;;;;;5021489;28;19945;-77
2022/12/06 03:34:17;;;;;;;;;;;4.00;99.90;;;;;;5044768;28;19944;-77
2022/12/06 03:36:45;;;;;;;;;;;4.00;99.90;;;;;;5031117;28;20282;-78
2022/12/06 03:39:15;;;;;;;;;;;4.10;99.90;;;;;;5046516;28;19931;-77
2022/12/06 03:41:45;;;;;;;;;;;4.10;99.90;;;;;;5047862;28;19936;-78
2022/12/06 03:44:12;;;;;;;;;;;4.10;99.90;;;;;;5027209;28;19960;-78
2022/12/06 03:46:42;;;;;;;;;;;4.20;99.90;;;;;;5044179;28;19990;-77
2022/12/06 03:49:12;;;;;;;;;;;4.20;99.90;;;;;;5045495;28;19979;-78
2022/12/06 03:51:39;;;;;;;;;;;4.20;99.90;;;;;;5029567;28;19932;-77
2022/12/06 03:54:07;;;;;;;;;;;4.20;99.90;;;;;;5029055;28;19939;-77
2022/12/06 03:56:36;;;;;;;;;;;4.30;99.90;;;;;;5049525;28;20019;-77
2022/12/06 03:59:04;;;;;;;;;;;4.30;99.90;;;;;;5046451;28;19936;-77
2022/12/06 04:01:30;;;;;;;;;;;4.30;99.90;;;;;;5044135;28;19968;-76
2022/12/06 04:03:58;;;;;;;;;;;4.30;99.90;;;;;;5041716;28;19932;-76
2022/12/06 04:06:25;;;;;;;;;;;4.30;99.90;;;;;;5035471;28;19925;-77
2022/12/06 04:08:52;;;;;;;;;;;4.30;99.90;;;;;;5042594;28;19929;-81
2022/12/06 04:11:18;;;;;;;;;;;4.30;99.90;;;;;;5039386;28;19912;-82
2022/12/06 04:13:47;;;;;;;;;;;4.30;99.90;;;;;;5050731;28;19940;-81
2022/12/06 04:18:58;;;;;;;;;;;4.40;99.90;;;;;;5028506;28;19943;-81
2022/12/06 04:24:10;;;;;;;;;;;4.40;99.90;;;;;;5050642;28;19929;-82
2022/12/06 04:26:38;;;;;;;;;;;4.50;99.90;;;;;;5051912;28;19941;-78
2022/12/06 04:40:04;;;;;;;;;;;4.60;99.90;;;;;;5047794;28;19940;-80
2022/12/06 04:45:17;;;;;;;;;;;4.50;99.90;;;;;;5028116;28;19925;-80
2022/12/06 04:47:44;;;;;;;;;;;4.50;99.90;;;;;;5047109;28;20023;-79
2022/12/06 04:50:11;;;;;;;;;;;4.50;99.90;;;;;;5047665;28;19948;-78
2022/12/06 04:52:50;;;;;;;;;;;4.50;99.90;;;;;;5048583;28;19972;-80
2022/12/06 04:55:17;;;;;;;;;;;4.50;99.90;;;;;;5033523;28;19970;-79
2022/12/06 04:57:44;;;;;;;;;;;4.50;99.90;;;;;;5040275;28;19929;-80
2022/12/06 05:00:13;;;;;;;;;;;4.60;99.90;;;;;;5034833;28;20008;-80
2022/12/06 05:02:41;;;;;;;;;;;4.60;99.90;;;;;;5045274;28;19960;-79
2022/12/06 05:05:08;;;;;;;;;;;4.60;99.90;;;;;;5042461;28;19929;-79
2022/12/06 05:07:38;;;;;;;;;;;4.60;99.90;;;;;;5036335;28;19925;-80
2022/12/06 05:10:06;;;;;;;;;;;4.60;99.90;;;;;;5053259;28;19928;-81
2022/12/06 05:12:33;;;;;;;;;;;4.60;99.90;;;;;;5047669;28;19928;-83
2022/12/06 05:15:00;;;;;;;;;;;4.60;99.90;;;;;;5017740;28;19991;-78
2022/12/06 05:17:27;;;;;;;;;;;4.60;99.90;;;;;;5020769;28;20308;-78
2022/12/06 05:19:55;;;;;;;;;;;4.70;99.90;;;;;;5045105;28;19941;-78
2022/12/06 05:22:22;;;;;;;;;;;4.70;99.90;;;;;;5052011;28;19934;-79
2022/12/06 05:24:50;;;;;;;;;;;4.70;99.90;;;;;;5035244;28;19933;-79
2022/12/06 05:27:18;;;;;;;;;;;4.70;99.90;;;;;;5051520;28;20034;-80
2022/12/06 05:29:45;;;;;;;;;;;4.80;99.90;;;;;;5047405;28;19929;-79
2022/12/06 05:32:13;;;;;;;;;;;4.80;99.90;;;;;;5022067;28;19929;-78
2022/12/06 05:34:40;;;;;;;;;;;4.80;99.90;;;;;;5041101;28;20293;-78
2022/12/06 05:37:09;;;;;;;;;;;4.80;99.90;;;;;;5048285;28;19999;-78
2022/12/06 05:39:35;;;;;;;;;;;4.80;99.90;;;;;;5045680;28;19928;-80
2022/12/06 05:42:03;;;;;;;;;;;4.80;99.90;;;;;;5029003;28;19928;-80
2022/12/06 05:44:32;;;;;;;;;;;4.80;99.90;;;;;;5026303;28;20050;-79
2022/12/06 05:46:59;;;;;;;;;;;4.80;99.90;;;;;;5023938;28;19978;-80
2022/12/06 05:49:26;;;;;;;;;;;4.80;99.90;;;;;;5046938;28;20413;-78
2022/12/06 05:51:54;;;;;;;;;;;4.80;99.90;;;;;;5021360;28;19929;-80
2022/12/06 05:54:22;;;;;;;;;;;4.80;99.90;;;;;;5044504;28;20041;-81
2022/12/06 05:56:49;;;;;;;;;;;4.80;99.90;;;;;;5049972;28;19929;-78
2022/12/06 05:59:16;;;;;;;;;;;4.80;99.90;;;;;;5045224;28;20448;-79
2022/12/06 06:01:44;;;;;;;;;;;4.80;99.90;;;;;;5030046;28;20218;-77
2022/12/06 06:04:11;;;;;;;;;;;4.80;99.90;;;;;;5033181;28;19951;-78
2022/12/06 06:06:38;;;;;;;;;;;4.80;99.90;;;;;;5041220;28;19929;-78
2022/12/06 06:09:05;;;;;;;;;;;4.80;99.90;;;;;;5043951;28;20237;-77
2022/12/06 06:11:33;;;;;;;;;;;4.80;99.90;;;;;;5044302;28;19925;-78
2022/12/06 06:14:00;;;;;;;;;;;4.80;99.90;;;;;;5027434;28;19928;-78
2022/12/06 06:16:27;;;;;;;;;;;4.90;99.90;;;;;;5036841;28;19929;-77
2022/12/06 06:18:54;;;;;;;;;;;4.80;99.90;;;;;;5028453;28;20019;-75
2022/12/06 06:21:21;;;;;;;;;;;4.90;99.90;;;;;;5042252;28;21525;-75
2022/12/06 06:23:48;;;;;;;;;;;4.90;99.90;;;;;;5024053;28;19925;-76
2022/12/06 06:26:15;;;;;;;;;;;4.90;99.90;;;;;;5027928;28;20414;-76
2022/12/06 06:28:44;;;;;;;;;;;4.90;99.90;;;;;;5015762;28;19925;-77
2022/12/06 06:31:11;;;;;;;;;;;4.90;99.90;;;;;;5045788;28;19991;-78
2022/12/06 06:33:41;;;;;;;;;;;5.00;99.90;;;;;;5033639;28;19929;-78
2022/12/06 06:36:08;;;;;;;;;;;5.00;99.90;;;;;;5026408;28;19995;-81
2022/12/06 06:38:35;;;;;;;;;;;5.00;99.90;;;;;;5028548;28;19947;-81
2022/12/06 06:41:02;;;;;;;;;;;5.00;99.90;;;;;;5043601;28;19928;-79
2022/12/06 06:43:30;;;;;;;;;;;5.00;99.90;;;;;;5040835;28;20361;-77
2022/12/06 06:45:59;;;;;;;;;;;5.00;99.90;;;;;;5046700;28;19925;-77
2022/12/06 06:48:27;;;;;;;;;;;5.00;99.90;;;;;;5046245;28;19933;-79
2022/12/06 06:50:54;;;;;;;;;;;5.00;99.90;;;;;;5023051;28;19929;-80
2022/12/06 06:53:21;;;;;;;;;;;5.00;99.90;;;;;;5017443;28;20319;-76
2022/12/06 06:55:48;;;;;;;;;;;5.00;99.90;;;;;;5023914;28;19936;-78
2022/12/06 06:58:15;;;;;;;;;;;5.00;99.90;;;;;;5040969;28;19956;-78
2022/12/06 07:00:42;;;;;;;;;;;5.00;99.90;;;;;;5028586;28;19929;-80
2022/12/06 07:03:13;;;;;;;;;;;5.00;99.90;;;;;;5015476;28;19931;-77
2022/12/06 07:05:42;;;;;;;;;;;5.40;99.90;;;;;;5041922;28;20245;-80
2022/12/06 07:08:09;;;;;;;;;;;4.90;99.90;;;;;;5036197;28;19935;-76
2022/12/06 07:10:36;;;;;;;;;;;4.90;99.90;;;;;;5045085;28;20070;-78
2022/12/06 07:13:03;;;;;;;;;;;4.90;99.90;;;;;;5029854;28;19929;-76
2022/12/06 07:15:29;;;;;;;;;;;4.90;99.90;;;;;;5018519;28;19983;-77
2022/12/06 07:17:56;;;;;;;;;;;4.90;99.90;;;;;;5034084;28;19925;-80
2022/12/06 07:20:25;;;;;;;;;;;4.90;99.90;;;;;;5047163;28;19925;-78
2022/12/06 07:22:52;;;;;;;;;;;4.90;99.90;;;;;;5021640;28;20334;-79
2022/12/06 07:25:18;;;;;;;;;;;4.90;99.90;;;;;;5024510;28;19933;-80
2022/12/06 07:27:46;;;;;;;;;;;4.90;99.90;;;;;;5029500;28;19939;-80
2022/12/06 07:30:14;;;;;;;;;;;4.80;99.90;;;;;;5026118;28;19929;-77
2022/12/06 07:32:41;;;;;;;;;;;4.80;99.90;;;;;;5033710;28;19964;-78
2022/12/06 07:35:09;;;;;;;;;;;4.80;99.90;;;;;;5049763;28;19924;-80
2022/12/06 07:37:38;;;;;;;;;;;4.80;99.90;;;;;;5051038;28;19935;-77
2022/12/06 07:40:09;;;;;;;;;;;4.80;99.90;;;;;;5032861;28;20024;-82
2022/12/06 07:45:20;;;;;;;;;;;4.50;99.90;;;;;;5047765;28;19960;-76
2022/12/06 07:47:47;;;;;;;;;;;4.80;99.90;;;;;;5049084;28;19925;-77
2022/12/06 07:50:15;;;;;;;;;;;4.80;99.90;;;;;;5033713;28;19925;-77
2022/12/06 07:52:44;;;;;;;;;;;4.90;99.90;;;;;;5031438;28;19925;-77
2022/12/06 07:55:11;;;;;;;;;;;5.00;99.90;;;;;;5049040;28;19936;-80
2022/12/06 07:57:38;;;;;;;;;;;5.00;99.90;;;;;;5029355;28;19929;-78
2022/12/06 08:00:09;;;;;;;;;;;5.10;99.90;;;;;;5039471;28;19929;-78
2022/12/06 08:02:39;;;;;;;;;;;5.10;99.90;;;;;;5027077;28;20058;-79
2022/12/06 08:05:07;;;;;;;;;;;5.20;99.90;;;;;;5022043;28;20686;-77
2022/12/06 08:07:33;;;;;;;;;;;5.20;99.90;;;;;;5043992;28;19929;-78
2022/12/06 08:10:01;;;;;;;;;;;5.20;99.90;;;;;;5030760;28;20016;-77
2022/12/06 08:12:29;;;;;;;;;;;5.30;99.90;;;;;;5022418;28;19979;-77
2022/12/06 08:14:57;;;;;;;;;;;5.30;99.90;;;;;;5041865;28;19924;-78
2022/12/06 08:17:24;;;;;;;;;;;5.40;99.90;;;;;;5051171;28;19933;-78
2022/12/06 08:19:51;;;;;;;;;;;5.40;99.90;;;;;;5051482;28;19925;-78
2022/12/06 08:22:18;;;;;;;;;;;5.40;99.90;;;;;;5053363;28;19932;-78
2022/12/06 08:24:45;;;;;;;;;;;5.40;99.90;;;;;;5052991;28;19940;-78
2022/12/06 08:27:14;;;;;;;;;;;5.50;99.90;;;;;;5053210;28;19928;-77
2022/12/06 08:29:43;;;;;;;;;;;5.50;99.90;;;;;;5052948;28;19929;-78
2022/12/06 08:32:11;;;;;;;;;;;5.50;99.90;;;;;;5051633;28;20003;-78
2022/12/06 08:34:37;;;;;;;;;;;5.50;99.90;;;;;;5033753;28;19928;-78
2022/12/06 08:37:05;;;;;;;;;;;5.60;99.90;;;;;;5043413;28;19929;-78
2022/12/06 08:39:32;;;;;;;;;;;5.70;99.90;;;;;;5044734;28;20034;-78
2022/12/06 08:41:59;;;;;;;;;;;5.80;99.90;;;;;;5042628;28;19925;-78
2022/12/06 08:44:27;;;;;;;;;;;5.80;99.90;;;;;;5039560;28;19928;-77
2022/12/06 08:46:54;;;;;;;;;;;5.90;99.90;;;;;;5038451;28;19929;-78
2022/12/06 08:49:22;;;;;;;;;;;6.00;99.90;;;;;;5041099;28;19968;-78
2022/12/06 08:51:49;;;;;;;;;;;6.30;99.90;;;;;;5038955;28;20055;-78
2022/12/06 08:54:18;;;;;;;;;;;6.10;99.90;;;;;;5027084;28;19931;-78
2022/12/06 08:56:45;;;;;;;;;;;6.20;99.90;;;;;;5041766;28;20466;-78
2022/12/06 08:59:11;;;;;;;;;;;6.20;99.90;;;;;;5040911;28;19928;-77
2022/12/06 09:01:40;;;;;;;;;;;6.20;99.90;;;;;;5031174;28;19940;-77
2022/12/06 09:04:08;;;;;;;;;;;6.30;99.90;;;;;;5048326;28;20067;-77
2022/12/06 09:06:36;;;;;;;;;;;6.30;99.90;;;;;;5029531;28;20451;-77
2022/12/06 09:09:03;;;;;;;;;;;6.40;99.90;;;;;;5026123;28;19929;-77
2022/12/06 09:11:30;;;;;;;;;;;6.40;99.90;;;;;;5050050;28;19928;-78
2022/12/06 09:13:57;;;;;;;;;;;6.40;99.90;;;;;;5054151;28;19935;-78
2022/12/06 09:16:24;;;;;;;;;;;6.40;99.90;;;;;;5053662;28;19936;-78
2022/12/06 09:18:53;;;;;;;;;;;6.50;99.90;;;;;;5036799;28;19928;-79
2022/12/06 09:21:21;;;;;;;;;;;6.50;99.90;;;;;;5037883;28;19931;-78
2022/12/06 09:23:48;;;;;;;;;;;6.50;99.90;;;;;;5056035;28;19928;-78
2022/12/06 09:26:15;;;;;;;;;;;6.60;99.90;;;;;;5055049;28;19935;-79
2022/12/06 09:28:43;;;;;;;;;;;6.60;99.90;;;;;;5031779;28;19933;-76
2022/12/06 09:31:11;;;;;;;;;;;6.60;99.90;;;;;;5045674;28;20383;-77
2022/12/06 09:33:38;;;;;;;;;;;6.60;99.90;;;;;;5040363;28;20250;-77
2022/12/06 09:36:10;;;;;;;;;;;6.60;99.90;;;;;;5031173;28;19964;-77
2022/12/06 09:38:38;;;;;;;;;;;6.70;99.90;;;;;;5036325;28;20368;-77
2022/12/06 09:41:11;;;;;;;;;;;6.70;99.90;;;;;;5016319;28;19929;-77
2022/12/06 09:43:43;;;;;;;;;;;6.60;99.90;;;;;;5047254;28;20059;-77
2022/12/06 09:46:15;;;;;;;;;;;6.60;99.90;;;;;;5047322;28;19929;-77
2022/12/06 09:48:56;;;;;;;;;;;6.60;99.90;;;;;;5046991;28;19925;-77
2022/12/06 09:51:31;;;;;;;;;;;6.60;99.90;;;;;;5026025;28;19949;-77
2022/12/06 09:54:04;;;;;;;;;;;6.60;99.90;;;;;;5021024;28;19925;-77
2022/12/06 09:56:34;;;;;;;;;;;6.60;99.90;;;;;;5017773;28;19928;-77
2022/12/06 09:59:11;;;;;;;;;;;6.70;99.90;;;;;;5044796;28;19929;-77
2022/12/06 10:01:47;;;;;;;;;;;6.70;99.90;;;;;;5046334;28;19929;-77
2022/12/06 10:04:29;;;;;;;;;;;6.70;99.90;;;;;;5045769;28;19975;-76
2022/12/06 10:07:01;;;;;;;;;;;6.70;99.90;;;;;;5045479;28;19944;-77
2022/12/06 10:09:35;;;;;;;;;;;6.70;99.90;;;;;;5031558;28;20334;-77
2022/12/06 10:12:19;;;;;;;;;;;6.70;99.90;;;;;;5027168;28;19959;-79
2022/12/06 10:14:52;;;;;;;;;;;6.80;99.90;;;;;;5022631;28;19921;-77
2022/12/06 10:17:26;;;;;;;;;;;6.90;99.90;;;;;;5046408;28;20257;-77
2022/12/06 10:19:58;;;;;;;;;;;7.10;99.90;;;;;;5027827;28;19935;-77
2022/12/06 10:22:29;;;;;;;;;;;7.10;99.90;;;;;;5029544;28;19929;-77
2022/12/06 10:24:59;;;;;;;;;;;7.20;99.90;;;;;;5035432;28;19932;-76
2022/12/06 10:27:30;;;;;;;;;;;7.20;99.90;;;;;;5021310;28;19936;-77
2022/12/06 10:29:58;;;;;;;;;;;7.30;99.90;;;;;;5036462;28;19932;-77
2022/12/06 10:32:43;;;;;;;;;;;7.40;99.90;;;;;;5042259;28;20373;-77
2022/12/06 10:35:16;;;;;;;;;;;7.50;99.90;;;;;;5038077;28;19979;-77
2022/12/06 10:37:49;;;;;;;;;;;7.60;99.90;;;;;;5045834;28;20447;-77
2022/12/06 10:40:17;;;;;;;;;;;7.70;99.90;;;;;;5045985;28;19924;-77
2022/12/06 10:42:49;;;;;;;;;;;7.80;99.90;;;;;;5039900;28;19929;-77
2022/12/06 10:48:08;;;;;;;;;;;8.00;99.90;;;;;;5041568;28;19986;-77
2022/12/06 10:50:36;;;;;;;;;;;8.10;99.90;;;;;;5026262;28;20616;-77
2022/12/06 10:53:09;;;;;;;;;;;8.20;99.90;;;;;;5044769;28;20466;-78
2022/12/06 10:55:40;;;;;;;;;;;8.30;99.90;;;;;;5027099;28;19991;-78
2022/12/06 10:58:10;;;;;;;;;;;8.40;99.90;;;;;;5040649;28;19928;-79
2022/12/06 11:00:39;;;;;;;;;;;8.50;99.90;;;;;;5036978;28;20440;-79
2022/12/06 11:03:16;;;;;;;;;;;8.50;99.90;;;;;;5046059;28;19952;-78
2022/12/06 11:05:44;;;;;;;;;;;8.50;99.90;;;;;;5051555;28;19996;-80
2022/12/06 11:08:13;;;;;;;;;;;8.50;99.90;;;;;;5034009;28;20287;-80
2022/12/06 11:10:42;;;;;;;;;;;8.60;99.90;;;;;;5049907;28;20103;-79
2022/12/06 11:13:15;;;;;;;;;;;8.60;99.90;;;;;;5050690;28;20486;-79
2022/12/06 11:15:46;;;;;;;;;;;8.60;99.90;;;;;;5050723;28;19947;-79
2022/12/06 11:18:14;;;;;;;;;;;8.70;99.90;;;;;;5033315;28;19936;-80
2022/12/06 11:20:44;;;;;;;;;;;8.80;99.90;;;;;;5049797;28;19982;-79
2022/12/06 11:23:16;;;;;;;;;;;8.80;99.90;;;;;;5033895;28;19935;-79
2022/12/06 11:25:59;;;;;;;;;;;8.80;99.90;;;;;;5051970;28;19929;-80
2022/12/06 11:28:34;;;;;;;;;;;8.80;99.90;;;;;;5032280;28;20021;-78
2022/12/06 11:31:01;;;;;;;;;;;8.80;99.90;;;;;;5052208;28;19939;-79
2022/12/06 11:33:30;;;;;;;;;;;8.70;99.90;;;;;;5048355;28;20031;-79
2022/12/06 11:35:59;;;;;;;;;;;8.70;99.90;;;;;;5026464;28;19925;-80
2022/12/06 11:38:27;;;;;;;;;;;8.70;99.90;;;;;;5017806;28;19929;-79
2022/12/06 11:40:56;;;;;;;;;;;8.70;99.90;;;;;;5033903;28;19996;-79
2022/12/06 11:43:25;;;;;;;;;;;8.70;99.90;;;;;;5048649;28;20408;-79
2022/12/06 11:45:52;;;;;;;;;;;8.70;99.90;;;;;;5034752;28;20016;-79
2022/12/06 11:48:20;;;;;;;;;;;8.60;99.90;;;;;;5038662;28;20022;-81
2022/12/06 11:50:48;;;;;;;;;;;8.60;99.90;;;;;;5046172;28;19935;-81
2022/12/06 11:53:18;;;;;;;;;;;8.60;99.90;;;;;;5052678;28;20044;-79
2022/12/06 11:55:49;;;;;;;;;;;8.60;99.90;;;;;;5048098;28;19932;-79
2022/12/06 11:58:19;;;;;;;;;;;8.60;99.90;;;;;;5047236;28;20027;-77
2022/12/06 12:00:56;;;;;;;;;;;8.50;99.90;;;;;;5030159;28;20409;-77
2022/12/06 12:03:28;;;;;;;;;;;8.50;99.90;;;;;;5032277;28;20332;-78
2022/12/06 12:06:13;;;;;;;;;;;8.50;99.90;;;;;;5048225;28;19929;-77
2022/12/06 12:08:40;;;;;;;;;;;8.50;99.90;;;;;;5031324;28;19924;-78
2022/12/06 12:11:19;;;;;;;;;;;8.60;99.90;;;;;;5045712;28;19945;-77
2022/12/06 12:13:49;;;;;;;;;;;8.60;99.90;;;;;;5050735;28;19986;-77
2022/12/06 12:16:17;;;;;;;;;;;8.50;99.90;;;;;;5035913;28;19925;-77
2022/12/06 12:18:50;;;;;;;;;;;8.50;99.90;;;;;;5039613;28;19925;-76
2022/12/06 12:21:17;;;;;;;;;;;8.30;99.90;;;;;;5028265;28;20456;-79
2022/12/06 12:23:45;;;;;;;;;;;8.20;99.90;;;;;;5044721;28;19925;-77
2022/12/06 12:26:14;;;;;;;;;;;8.20;99.90;;;;;;5032896;28;20306;-76
2022/12/06 12:28:42;;;;;;;;;;;8.20;99.90;;;;;;5038507;28;19933;-76
2022/12/06 12:31:17;;;;;;;;;;;8.20;99.90;;;;;;5013501;28;19932;-77
2022/12/06 12:33:44;;;;;;;;;;;;;;;;;;5027174;28;19980;-76
2022/12/06 12:36:15;;;;;;;;;;;8.60;99.90;;;;;;5050278;28;19998;-78
2022/12/06 12:38:43;;;;;;;;;;;8.70;99.90;;;;;;5030615;28;19924;-76
2022/12/06 12:41:23;;;;;;;;;;;8.70;99.90;;;;;;5038222;28;20285;-78
2022/12/06 12:43:55;;;;;;;;;;;8.60;99.90;;;;;;5028033;28;19956;-79
2022/12/06 12:46:22;;;;;;;;;;;8.60;99.90;;;;;;5049413;28;19956;-79
2022/12/06 12:48:51;;;;;;;;;;;8.70;99.90;;;;;;5052578;28;19939;-80
2022/12/06 12:51:28;;;;;;;;;;;8.80;99.90;;;;;;5031930;28;20454;-79
2022/12/06 12:53:56;;;;;;;;;;;9.00;99.90;;;;;;5048090;28;19975;-79
2022/12/06 12:56:27;;;;;;;;;;;9.00;99.90;;;;;;5033190;28;20352;-80
2022/12/06 12:58:55;;;;;;;;;;;9.10;99.90;;;;;;5022370;28;19958;-79
2022/12/06 13:01:36;;;;;;;;;;;9.20;99.90;;;;;;5029442;28;19951;-79
2022/12/06 13:04:05;;;;;;;;;;;9.20;99.90;;;;;;5021258;28;20297;-79
2022/12/06 13:06:36;;;;;;;;;;;9.20;99.90;;;;;;5041844;28;19928;-81
2022/12/06 13:09:04;;;;;;;;;;;9.30;99.90;;;;;;5033068;28;19925;-81
2022/12/06 13:11:38;;;;;;;;;;;9.40;99.90;;;;;;5031134;28;19933;-80
2022/12/06 13:14:05;;;;;;;;;;;9.50;99.90;;;;;;5028712;28;19935;-80
2022/12/06 13:16:36;;;;;;;;;;;9.70;99.90;;;;;;5042143;28;19932;-82
2022/12/06 13:19:03;;;;;;;;;;;9.90;99.90;;;;;;5040196;28;20068;-79
2022/12/06 13:21:32;;;;;;;;;;;9.90;99.90;;;;;;5021222;28;19932;-79
2022/12/06 13:24:02;;;;;;;;;;;9.90;99.90;;;;;;5028374;28;19929;-79
2022/12/06 13:26:31;;;;;;;;;;;9.70;99.90;;;;;;5024706;28;19963;-81
2022/12/06 13:29:02;;;;;;;;;;;9.50;99.90;;;;;;5047182;28;19928;-79
2022/12/06 13:31:34;;;;;;;;;;;9.50;99.90;;;;;;5051312;28;19936;-80
2022/12/06 13:34:04;;;;;;;;;;;9.50;99.90;;;;;;5047844;28;20432;-79
2022/12/06 13:36:32;;;;;;;;;;;9.60;99.90;;;;;;5049668;28;19994;-79
2022/12/06 13:38:59;;;;;;;;;;;9.60;99.90;;;;;;5013924;28;19961;-79
2022/12/06 13:44:36;;;;;;;;;;;9.40;99.90;;;;;;5038115;28;19932;-79
2022/12/06 13:47:18;;;;;;;;;;;9.30;99.90;;;;;;5047833;28;19929;-78
2022/12/06 13:49:47;;;;;;;;;;;8.90;99.90;;;;;;5039153;28;19982;-77
2022/12/06 13:52:40;;;;;;;;;;;8.90;99.90;;;;;;5029542;28;19937;-79
2022/12/06 13:55:22;;;;;;;;;;;8.70;99.90;;;;;;5049595;28;19996;-78
2022/12/06 13:57:49;;;;;;;;;;;8.50;99.90;;;;;;5035718;28;19940;-78
2022/12/06 14:00:33;;;;;;;;;;;8.30;99.90;;;;;;5046102;28;20323;-79
2022/12/06 14:03:01;;;;;;;;;;;8.20;99.90;;;;;;5027359;28;19929;-79
2022/12/06 14:05:48;;;;;;;;;;;8.20;99.90;;;;;;5026896;28;20286;-79
2022/12/06 14:08:16;;;;;;;;;;;8.20;99.90;;;;;;5030703;28;19929;-78
2022/12/06 14:10:43;;;;;;;;;;;8.20;99.90;;;;;;5029231;28;19932;-78
2022/12/06 14:13:15;;;;;;;;;;;8.20;99.90;;;;;;5045129;28;19925;-79
2022/12/06 14:15:45;;;;;;;;;;;8.20;99.90;;;;;;5038360;28;19951;-78
2022/12/06 14:18:17;;;;;;;;;;;8.10;99.90;;;;;;5036673;28;19975;-78
2022/12/06 14:20:44;;;;;;;;;;;8.10;99.90;;;;;;5038962;28;19993;-78
2022/12/06 14:23:22;;;;;;;;;;;8.20;99.90;;;;;;5011763;28;19932;-78
2022/12/06 14:25:49;;;;;;;;;;;8.20;99.90;;;;;;5038283;28;20007;-78
2022/12/06 14:28:17;;;;;;;;;;;8.10;99.90;;;;;;5046111;28;19983;-78
2022/12/06 14:30:45;;;;;;;;;;;8.10;99.90;;;;;;5030883;28;19978;-80
2022/12/06 14:33:19;;;;;;;;;;;8.10;99.90;;;;;;5031922;28;19929;-79
2022/12/06 14:35:49;;;;;;;;;;;8.00;99.90;;;;;;5048525;28;19987;-78
2022/12/06 14:38:21;;;;;;;;;;;8.00;99.90;;;;;;5050096;28;19929;-78
2022/12/06 14:43:35;;;;;;;;;;;7.90;99.90;;;;;;5046108;28;20031;-78
2022/12/06 14:46:03;;;;;;;;;;;7.80;99.90;;;;;;5027057;28;19929;-81
2022/12/06 14:50:22;;;;;;;;;;;7.80;99.90;;;;;;5046717;28;19991;-78
2022/12/06 14:51:18;;;;;;;;;;;7.70;99.90;;;;;;5045819;28;19998;-81
2022/12/06 14:53:45;;;;;;;;;;;7.70;99.90;;;;;;5024380;28;19956;-78
2022/12/06 14:56:22;;;;;;;;;;;7.60;99.90;;;;;;5048901;28;19949;-76
2022/12/06 14:58:49;;;;;;;;;;;7.60;99.90;;;;;;5027849;28;19925;-77
2022/12/06 15:01:17;;;;;;;;;;;7.50;99.90;;;;;;5037390;28;20030;-79
2022/12/06 15:03:44;;;;;;;;;;;7.50;99.90;;;;;;5042627;28;19932;-78
2022/12/06 15:06:13;;;;;;;;;;;7.50;99.90;;;;;;5048217;28;20387;-79
2022/12/06 15:08:41;;;;;;;;;;;7.50;99.90;;;;;;5032536;28;19990;-78
2022/12/06 15:14:15;;;;;;;;;;;7.50;99.90;;;;;;5028883;28;20051;-78
2022/12/06 15:16:44;;;;;;;;;;;7.40;99.90;;;;;;5040118;28;20543;-77